Faust — SLKQ — position and weather

sailwx.info

Track history (hours):
 
Tides and Currents Weather Stations Pressure Air Temp Water Temp Dewpoint Dewpoint Depression Visibility Wind Speed Wind Dir Waves Ship Positions

Faust

Last reported at 2016-Dec-06 06:00 UTC. Time now 2016-Dec-06 12:16 UTC.
Position N 42°30' W 009°48'.

Length 227.8 m; beam 32.3 m; draft 9.5 m.

Type: Cargo ship. MMSI: 266260000.

Wind from 180 at 12 knots

Barometer 1023.2 mb
Air temperature 15.3 ° C
Visibility: greater than 10.8 NM
Water temperature 16.0 ° C

Date/timePositionNaut miles runAvg speedWind from/ knotsBaromVisibWave heightAir tempDewpointWater temp
2016-Dec-06 06:00N 42°30' W 009°48'9015.0 180 / 121023.210.8 15.3 16.0
2016-Dec-06 00:00N 41°00' W 009°48'5214.9 100 / 101021.510.8 15.8 16.6
2016-Dec-05 20:28N 40°08' W 009°50'1415.2
2016-Dec-05 19:33N 39°54' W 009°50'1515.1
2016-Dec-05 18:33N 39°39' W 009°50'915.9
2016-Dec-05 18:00N 39°30' W 009°48'715.0 040 / 71018.610.8 16.6 17.6
2016-Dec-05 17:33N 39°24' W 009°51'1514.8
2016-Dec-05 16:33N 39°09' W 009°51'1514.7
2016-Dec-05 15:33N 38°54' W 009°50'1515.1
2016-Dec-05 14:33N 38°39' W 009°50'1514.6
2016-Dec-05 13:33N 38°25' W 009°46'1414.4
2016-Dec-05 12:33N 38°11' W 009°42'1220.9
2016-Dec-05 12:00N 38°00' W 009°36'3 7.5 060 / 161015.210.8 16.3 17.5
2016-Dec-05 11:33N 37°57' W 009°37'7914.2
2016-Dec-05 06:00N 36°42' W 009°06'4713.5 040 / 171008.110.8 16.6 18.8
2016-Dec-05 02:28N 36°29' W 008°09'1213.4
2016-Dec-05 01:33N 36°25' W 007°55'1313.4
2016-Dec-05 00:33N 36°21' W 007°39'5112.9
2016-Dec-04 20:33N 36°05' W 006°38'1312.7
2016-Dec-04 19:33N 36°01' W 006°23'1712.5
2016-Dec-04 18:12N 35°58' W 006°03'420.5
2016-Dec-04 18:00N 35°54' W 006°00'2114.7 090 / 221017.0 5.4 16.0 19.4
2016-Dec-04 16:33N 35°58' W 005°34'1514.6
2016-Dec-04 15:31N 36°02' W 005°16'10914.9
2016-Dec-04 08:11N 36°26' W 003°04'1015.8
2016-Dec-04 07:33N 36°26' W 002°52'1615.9
2016-Dec-04 06:33N 36°26' W 002°32'1220.5
2016-Dec-04 06:00N 36°24' W 002°18'612.4 200 / 221009.3 5.4 15.5 17.5
2016-Dec-04 05:33N 36°26' W 002°11'38016.1
2016-Dec-03 06:00N 37°36' E 005°36'18515.4 150 / 71014.710.8 15.5 19.8
2016-Dec-02 18:00N 37°36' E 009°30'18515.4 130 / 61018.210.8 15.9 20.0
2016-Dec-02 06:00N 37°00' E 013°18'817.8 280 / 71020.510.8 15.0 19.7
2016-Dec-02 05:33N 36°55' E 013°26'1616.5
2016-Dec-02 04:33N 36°51' E 013°45'1616.2
2016-Dec-02 03:33N 36°47' E 014°05'1616.0
2016-Dec-02 02:33N 36°41' E 014°24'14016.4
2016-Dec-01 18:00N 36°30' E 017°18'9215.3 360 / 151021.410.8 15.7 20.4
2016-Dec-01 12:00N 36°30' E 019°12'9215.3 340 / 541016.510.8 15.0 20.0
2016-Dec-01 06:00N 36°24' E 021°06'11114.6 360 / 211018.310.8 12.0 20.8
2016-Nov-30 22:21N 36°41' E 023°23'3616.6
2016-Nov-30 20:12N 37°15' E 023°36'1117.6
2016-Nov-30 19:33N 37°26' E 023°39'1616.3
2016-Nov-30 18:34N 37°43' E 023°41'1414.2
2016-Nov-30 17:33N 37°57' E 023°36'1 1.1
2016-Nov-30 16:31N 37°58' E 023°36'0 0.0
2016-Nov-30 15:31N 37°58' E 023°36'0 0.0
2016-Nov-30 14:31N 37°58' E 023°36'0 0.0
2016-Nov-30 13:28N 37°58' E 023°36'0 0.0
2016-Nov-30 12:31N 37°58' E 023°36'0 0.0
2016-Nov-30 11:31N 37°58' E 023°36'0 0.0
2016-Nov-30 10:31N 37°58' E 023°36'0 0.0
2016-Nov-30 09:31N 37°58' E 023°36'0 0.0
2016-Nov-30 08:31N 37°58' E 023°36'0 0.0
2016-Nov-30 07:31N 37°58' E 023°36'1 1.0
2016-Nov-30 06:33N 37°57' E 023°36'3 3.4
2016-Nov-30 05:33N 37°53' E 023°36'1 0.9
2016-Nov-30 04:33N 37°54' E 023°36'5 4.7
2016-Nov-30 03:34N 37°50' E 023°39'1413.6
2016-Nov-30 02:33N 37°38' E 023°48'1514.6
2016-Nov-30 01:33N 37°28' E 024°00'1614.8
2016-Nov-30 00:30N 37°15' E 024°12'  
Track history (hours):
 
Tides and Currents Weather Stations Pressure Air Temp Water Temp Dewpoint Dewpoint Depression Visibility Wind Speed Wind Dir Waves Ship Positions

Faust

Last reported at 2016-Dec-06 06:00 UTC. Time now 2016-Dec-06 12:16 UTC.
Position N 42°30' W 009°48'.

Length 227.8 m; beam 32.3 m; draft 9.5 m.

Type: Cargo ship. MMSI: 266260000.

Wind from 180 at 12 knots

Barometer 1023.2 mb
Air temperature 15.3 ° C
Visibility: greater than 10.8 NM
Water temperature 16.0 ° C

Date/timePositionNaut miles runAvg speedWind from/ knotsBaromVisibWave heightAir tempDewpointWater temp
2016-Dec-06 06:00N 42°30' W 009°48'9015.0 180 / 121023.210.8 15.3 16.0
2016-Dec-06 00:00N 41°00' W 009°48'5214.9 100 / 101021.510.8 15.8 16.6
2016-Dec-05 20:28N 40°08' W 009°50'1415.2
2016-Dec-05 19:33N 39°54' W 009°50'1515.1
2016-Dec-05 18:33N 39°39' W 009°50'915.9
2016-Dec-05 18:00N 39°30' W 009°48'715.0 040 / 71018.610.8 16.6 17.6
2016-Dec-05 17:33N 39°24' W 009°51'1514.8
2016-Dec-05 16:33N 39°09' W 009°51'1514.7
2016-Dec-05 15:33N 38°54' W 009°50'1515.1
2016-Dec-05 14:33N 38°39' W 009°50'1514.6
2016-Dec-05 13:33N 38°25' W 009°46'1414.4
2016-Dec-05 12:33N 38°11' W 009°42'1220.9
2016-Dec-05 12:00N 38°00' W 009°36'3 7.5 060 / 161015.210.8 16.3 17.5
2016-Dec-05 11:33N 37°57' W 009°37'7914.2
2016-Dec-05 06:00N 36°42' W 009°06'4713.5 040 / 171008.110.8 16.6 18.8
2016-Dec-05 02:28N 36°29' W 008°09'1213.4
2016-Dec-05 01:33N 36°25' W 007°55'1313.4
2016-Dec-05 00:33N 36°21' W 007°39'5112.9
2016-Dec-04 20:33N 36°05' W 006°38'1312.7
2016-Dec-04 19:33N 36°01' W 006°23'1712.5
2016-Dec-04 18:12N 35°58' W 006°03'420.5
2016-Dec-04 18:00N 35°54' W 006°00'2114.7 090 / 221017.0 5.4 16.0 19.4
2016-Dec-04 16:33N 35°58' W 005°34'1514.6
2016-Dec-04 15:31N 36°02' W 005°16'10914.9
2016-Dec-04 08:11N 36°26' W 003°04'1015.8
2016-Dec-04 07:33N 36°26' W 002°52'1615.9
2016-Dec-04 06:33N 36°26' W 002°32'1220.5
2016-Dec-04 06:00N 36°24' W 002°18'612.4 200 / 221009.3 5.4 15.5 17.5
2016-Dec-04 05:33N 36°26' W 002°11'38016.1
2016-Dec-03 06:00N 37°36' E 005°36'18515.4 150 / 71014.710.8 15.5 19.8
2016-Dec-02 18:00N 37°36' E 009°30'18515.4 130 / 61018.210.8 15.9 20.0
2016-Dec-02 06:00N 37°00' E 013°18'817.8 280 / 71020.510.8 15.0 19.7
2016-Dec-02 05:33N 36°55' E 013°26'1616.5
2016-Dec-02 04:33N 36°51' E 013°45'1616.2
2016-Dec-02 03:33N 36°47' E 014°05'1616.0
2016-Dec-02 02:33N 36°41' E 014°24'14016.4
2016-Dec-01 18:00N 36°30' E 017°18'9215.3 360 / 151021.410.8 15.7 20.4
2016-Dec-01 12:00N 36°30' E 019°12'9215.3 340 / 541016.510.8 15.0 20.0
2016-Dec-01 06:00N 36°24' E 021°06'11114.6 360 / 211018.310.8 12.0 20.8
2016-Nov-30 22:21N 36°41' E 023°23'3616.6
2016-Nov-30 20:12N 37°15' E 023°36'1117.6
2016-Nov-30 19:33N 37°26' E 023°39'1616.3
2016-Nov-30 18:34N 37°43' E 023°41'1414.2
2016-Nov-30 17:33N 37°57' E 023°36'1 1.1
2016-Nov-30 16:31N 37°58' E 023°36'0 0.0
2016-Nov-30 15:31N 37°58' E 023°36'0 0.0
2016-Nov-30 14:31N 37°58' E 023°36'0 0.0
2016-Nov-30 13:28N 37°58' E 023°36'0 0.0
2016-Nov-30 12:31N 37°58' E 023°36'0 0.0
2016-Nov-30 11:31N 37°58' E 023°36'0 0.0
2016-Nov-30 10:31N 37°58' E 023°36'0 0.0
2016-Nov-30 09:31N 37°58' E 023°36'0 0.0
2016-Nov-30 08:31N 37°58' E 023°36'0 0.0
2016-Nov-30 07:31N 37°58' E 023°36'1 1.0
2016-Nov-30 06:33N 37°57' E 023°36'3 3.4
2016-Nov-30 05:33N 37°53' E 023°36'1 0.9
2016-Nov-30 04:33N 37°54' E 023°36'5 4.7
2016-Nov-30 03:34N 37°50' E 023°39'1413.6
2016-Nov-30 02:33N 37°38' E 023°48'1514.6
2016-Nov-30 01:33N 37°28' E 024°00'1614.8
2016-Nov-30 00:30N 37°15' E 024°12'  

Dump ship's entire track history